Time;durP1;ratioP1;P1;durP2;ratioP2;P2;SDS_P1;SDS_P2;PMS_P1;PMS_P2;Temp;Humidity;BMP_temperature;BMP_pressure;BME280_temperature;BME280_humidity;BME280_pressure;Samples;Min_cycle;Max_cycle;Signal;HPM_P1;HPM_P2
2023/08/04 00:02:00;;;;;;;0.20;0.10;;;;;;;;;;4977172;28;20081;-81
2023/08/04 00:04:26;;;;;;;0.20;0.10;;;;;;;;;;4978562;28;20076;-80
2023/08/04 00:06:52;;;;;;;0.20;0.10;;;;;;;;;;4990468;28;20057;-82
2023/08/04 00:09:18;;;;;;;1.85;0.43;;;;;;;;;;4981315;28;20041;-80
2023/08/04 00:11:44;;;;;;;0.20;0.10;;;;;;;;;;4976211;28;20156;-82
2023/08/04 00:14:10;;;;;;;0.20;0.10;;;;;;;;;;4990533;28;20109;-81
2023/08/04 00:16:36;;;;;;;0.20;0.10;;;;;;;;;;4991240;28;20252;-84
2023/08/04 00:19:02;;;;;;;0.20;0.00;;;;;;;;;;4972386;28;20041;-81
2023/08/04 00:21:28;;;;;;;0.20;0.10;;;;;;;;;;5007710;23;20033;-87
2023/08/04 00:23:58;;;;;;;0.20;0.10;;;;;;;;;;4988920;28;20750;-86
2023/08/04 00:26:24;;;;;;;0.20;0.10;;;;;;;;;;4988631;28;20095;-88
2023/08/04 00:28:50;;;;;;;0.20;0.10;;;;;;;;;;5009540;28;20041;-87
2023/08/04 00:31:16;;;;;;;0.20;0.10;;;;;;;;;;5012074;28;20038;-89
2023/08/04 00:33:42;;;;;;;0.20;0.10;;;;;;;;;;4976848;28;20502;-87
2023/08/04 00:36:08;;;;;;;0.20;0.10;;;;;;;;;;4992372;28;20061;-90
2023/08/04 00:38:34;;;;;;;0.20;0.10;;;;;;;;;;4979727;28;20363;-88
2023/08/04 00:41:01;;;;;;;0.25;0.25;;;;;;;;;;4978213;28;20050;-91
2023/08/04 00:43:27;;;;;;;0.20;0.10;;;;;;;;;;4988027;28;20045;-88
2023/08/04 00:45:53;;;;;;;0.20;0.10;;;;;;;;;;4975304;28;20157;-89
2023/08/04 00:48:19;;;;;;;0.30;0.20;;;;;;;;;;4993483;28;20415;-86
2023/08/04 00:50:45;;;;;;;0.20;0.10;;;;;;;;;;4979916;28;20457;-88
2023/08/04 00:53:12;;;;;;;0.20;0.05;;;;;;;;;;4994864;28;20042;-89
2023/08/04 00:55:41;;;;;;;0.20;0.10;;;;;;;;;;4983437;28;20038;-86
2023/08/04 00:58:07;;;;;;;0.20;0.00;;;;;;;;;;4992304;28;20064;-87
2023/08/04 01:00:33;;;;;;;0.20;0.00;;;;;;;;;;4971997;28;20425;-86
2023/08/04 01:02:59;;;;;;;0.20;0.10;;;;;;;;;;4988411;28;20034;-88
2023/08/04 01:05:32;;;;;;;0.20;0.13;;;;;;;;;;4974765;28;20462;-86
2023/08/04 01:08:02;;;;;;;0.38;0.28;;;;;;;;;;4966636;28;20034;-86
2023/08/04 01:10:31;;;;;;;0.20;0.05;;;;;;;;;;4990022;28;20043;-88
2023/08/04 01:13:04;;;;;;;0.20;0.10;;;;;;;;;;4984205;28;20520;-84
2023/08/04 01:15:30;;;;;;;0.20;0.08;;;;;;;;;;4991056;28;20050;-86
2023/08/04 01:17:57;;;;;;;0.20;0.00;;;;;;;;;;4981490;28;20076;-86
2023/08/04 01:20:23;;;;;;;0.30;0.15;;;;;;;;;;4983358;28;20513;-88
2023/08/04 01:22:50;;;;;;;0.20;0.10;;;;;;;;;;5000515;28;20450;-84
2023/08/04 01:25:16;;;;;;;0.20;0.10;;;;;;;;;;4980096;28;20049;-83
2023/08/04 01:27:43;;;;;;;0.20;0.10;;;;;;;;;;4986556;28;20037;-84
2023/08/04 01:30:14;;;;;;;0.20;0.10;;;;;;;;;;4988240;28;20045;-84
2023/08/04 01:32:40;;;;;;;0.20;0.10;;;;;;;;;;4987148;28;20091;-82
2023/08/04 01:35:07;;;;;;;0.20;0.10;;;;;;;;;;5003964;28;20421;-85
2023/08/04 01:37:33;;;;;;;0.20;0.10;;;;;;;;;;5003575;28;20039;-85
2023/08/04 01:39:59;;;;;;;0.20;0.00;;;;;;;;;;4989107;28;20042;-86
2023/08/04 01:42:25;;;;;;;0.20;0.00;;;;;;;;;;4990022;28;20509;-85
2023/08/04 01:44:51;;;;;;;0.20;0.10;;;;;;;;;;4985764;28;20053;-85
2023/08/04 01:47:17;;;;;;;0.20;0.05;;;;;;;;;;4987642;28;20034;-84
2023/08/04 01:49:43;;;;;;;0.20;0.10;;;;;;;;;;5003564;28;20041;-84
2023/08/04 01:52:09;;;;;;;0.20;0.10;;;;;;;;;;5005338;28;20042;-85
2023/08/04 01:54:35;;;;;;;0.20;0.10;;;;;;;;;;4988644;28;20502;-87
2023/08/04 01:57:01;;;;;;;0.57;0.52;;;;;;;;;;4989259;28;20088;-86
2023/08/04 01:59:27;;;;;;;0.20;0.00;;;;;;;;;;4988445;28;20045;-84
2023/08/04 02:01:53;;;;;;;0.20;0.10;;;;;;;;;;4981820;28;20038;-86
2023/08/04 02:04:19;;;;;;;0.20;0.10;;;;;;;;;;4984142;28;20041;-85
2023/08/04 02:06:45;;;;;;;0.20;0.10;;;;;;;;;;5005220;28;20045;-85
2023/08/04 02:09:12;;;;;;;0.20;0.10;;;;;;;;;;4982384;28;22123;-85
2023/08/04 02:11:38;;;;;;;0.20;0.00;;;;;;;;;;5002599;28;20041;-84
2023/08/04 02:14:04;;;;;;;0.20;0.10;;;;;;;;;;5001449;28;20103;-85
2023/08/04 02:16:30;;;;;;;0.20;0.10;;;;;;;;;;4983517;28;20049;-86
2023/08/04 02:19:03;;;;;;;0.20;0.00;;;;;;;;;;4987102;28;20048;-87
2023/08/04 02:21:30;;;;;;;0.20;0.10;;;;;;;;;;4988519;28;20042;-91
2023/08/04 02:23:56;;;;;;;0.20;0.00;;;;;;;;;;4991049;28;20125;-86
2023/08/04 02:26:22;;;;;;;0.20;0.10;;;;;;;;;;4989785;28;20034;-87
2023/08/04 02:28:50;;;;;;;0.20;0.10;;;;;;;;;;4988712;28;20039;-87
2023/08/04 02:31:17;;;;;;;0.20;0.10;;;;;;;;;;4982542;28;20124;-86
2023/08/04 02:33:43;;;;;;;0.20;0.10;;;;;;;;;;4988370;28;20041;-88
2023/08/04 02:36:11;;;;;;;0.20;0.00;;;;;;;;;;4990216;28;20533;-85
2023/08/04 02:38:37;;;;;;;0.20;0.00;;;;;;;;;;5000787;28;20556;-85
2023/08/04 02:41:03;;;;;;;0.20;0.00;;;;;;;;;;4985022;28;20498;-85
2023/08/04 02:43:30;;;;;;;0.20;0.05;;;;;;;;;;5003795;28;20124;-85
2023/08/04 02:45:56;;;;;;;0.20;0.10;;;;;;;;;;4987749;28;20038;-85
2023/08/04 02:48:22;;;;;;;0.20;0.10;;;;;;;;;;4983759;28;20517;-85
2023/08/04 02:50:57;;;;;;;0.20;0.08;;;;;;;;;;4987238;28;20044;-84
2023/08/04 02:53:23;;;;;;;0.20;0.00;;;;;;;;;;4984559;28;20069;-85
2023/08/04 02:55:49;;;;;;;0.20;0.10;;;;;;;;;;4984492;28;20111;-86
2023/08/04 02:58:15;;;;;;;0.20;0.10;;;;;;;;;;5001124;28;20550;-88
2023/08/04 03:00:41;;;;;;;0.20;0.10;;;;;;;;;;4997066;28;20053;-86
2023/08/04 03:03:07;;;;;;;0.20;0.10;;;;;;;;;;4983353;28;20038;-85
2023/08/04 03:05:36;;;;;;;0.20;0.00;;;;;;;;;;4987844;28;20053;-86
2023/08/04 03:08:02;;;;;;;0.20;0.10;;;;;;;;;;4985502;28;20168;-88
2023/08/04 03:10:28;;;;;;;0.20;0.10;;;;;;;;;;5000798;28;20040;-87
2023/08/04 03:12:54;;;;;;;0.20;0.10;;;;;;;;;;5002516;28;20042;-86
2023/08/04 03:15:20;;;;;;;0.20;0.10;;;;;;;;;;4993662;28;20042;-90
2023/08/04 03:17:46;;;;;;;0.20;0.08;;;;;;;;;;4986211;28;20121;-86
2023/08/04 03:20:13;;;;;;;0.20;0.10;;;;;;;;;;4986514;28;20901;-88
2023/08/04 03:22:39;;;;;;;0.20;0.10;;;;;;;;;;5004139;28;20069;-87
2023/08/04 03:25:06;;;;;;;0.20;0.10;;;;;;;;;;4987570;28;20046;-87
2023/08/04 03:27:32;;;;;;;0.20;0.00;;;;;;;;;;5001850;28;20499;-86
2023/08/04 03:29:58;;;;;;;0.20;0.00;;;;;;;;;;4988883;28;20517;-87
2023/08/04 03:32:24;;;;;;;0.20;0.05;;;;;;;;;;4984472;28;20135;-88
2023/08/04 03:34:50;;;;;;;0.20;0.00;;;;;;;;;;4986835;28;20034;-87
2023/08/04 03:37:16;;;;;;;0.20;0.10;;;;;;;;;;4988804;28;21041;-86
2023/08/04 03:39:42;;;;;;;0.20;0.10;;;;;;;;;;4985817;28;20384;-87
2023/08/04 03:42:09;;;;;;;0.20;0.00;;;;;;;;;;4984989;28;20034;-87
2023/08/04 03:44:35;;;;;;;0.20;0.10;;;;;;;;;;4981142;28;20070;-87
2023/08/04 03:47:01;;;;;;;0.20;0.10;;;;;;;;;;4987855;28;20041;-87
2023/08/04 03:49:28;;;;;;;0.75;0.75;;;;;;;;;;4981457;28;20041;-85
2023/08/04 03:51:54;;;;;;;0.20;0.10;;;;;;;;;;4976450;28;20044;-86
2023/08/04 03:54:20;;;;;;;0.20;0.00;;;;;;;;;;4982454;28;20052;-86
2023/08/04 03:56:46;;;;;;;0.20;0.10;;;;;;;;;;4981998;28;20034;-85
2023/08/04 03:59:12;;;;;;;0.20;0.10;;;;;;;;;;4975787;28;20490;-84
2023/08/04 04:01:39;;;;;;;0.20;0.10;;;;;;;;;;4974606;28;20550;-85
2023/08/04 04:04:05;;;;;;;0.20;0.00;;;;;;;;;;4980305;28;20048;-85
2023/08/04 04:06:31;;;;;;;0.20;0.10;;;;;;;;;;4979748;28;20048;-89
2023/08/04 04:08:57;;;;;;;0.20;0.10;;;;;;;;;;4974390;28;20046;-86
2023/08/04 04:11:23;;;;;;;0.20;0.00;;;;;;;;;;4997063;28;20068;-87
2023/08/04 04:13:49;;;;;;;0.20;0.10;;;;;;;;;;4980704;28;20048;-87
2023/08/04 04:16:15;;;;;;;0.20;0.00;;;;;;;;;;4981424;28;20042;-85
2023/08/04 04:18:41;;;;;;;0.20;0.00;;;;;;;;;;4986841;28;20052;-86
2023/08/04 04:21:07;;;;;;;0.35;0.30;;;;;;;;;;5003552;28;20100;-85
2023/08/04 04:23:33;;;;;;;0.20;0.10;;;;;;;;;;4985027;28;20545;-85
2023/08/04 04:25:59;;;;;;;0.20;0.10;;;;;;;;;;4983623;28;20568;-86
2023/08/04 04:28:25;;;;;;;0.20;0.00;;;;;;;;;;4984252;28;20088;-85
2023/08/04 04:30:51;;;;;;;0.20;0.10;;;;;;;;;;4982892;28;20037;-84
2023/08/04 04:33:17;;;;;;;0.20;0.00;;;;;;;;;;4988301;28;20052;-84
2023/08/04 04:35:49;;;;;;;0.20;0.00;;;;;;;;;;4984543;28;20037;-86
2023/08/04 04:38:16;;;;;;;0.30;0.20;;;;;;;;;;4968518;28;20617;-86
2023/08/04 04:40:42;;;;;;;0.20;0.10;;;;;;;;;;4987131;28;20760;-85
2023/08/04 04:43:08;;;;;;;0.20;0.10;;;;;;;;;;4972415;28;20030;-85
2023/08/04 04:45:34;;;;;;;0.20;0.03;;;;;;;;;;4979903;28;20049;-84
2023/08/04 04:48:00;;;;;;;0.20;0.00;;;;;;;;;;4994321;28;20037;-85
2023/08/04 04:50:26;;;;;;;0.22;0.10;;;;;;;;;;4978728;28;20321;-84
2023/08/04 04:52:52;;;;;;;0.20;0.00;;;;;;;;;;5001877;28;20038;-88
2023/08/04 04:55:18;;;;;;;0.20;0.10;;;;;;;;;;4986404;28;20071;-86
2023/08/04 04:57:44;;;;;;;0.20;0.10;;;;;;;;;;4983109;28;20042;-86
2023/08/04 05:00:10;;;;;;;0.20;0.10;;;;;;;;;;4985178;28;20045;-86
2023/08/04 05:02:36;;;;;;;0.20;0.00;;;;;;;;;;5006178;28;20726;-86
2023/08/04 05:05:03;;;;;;;0.20;0.10;;;;;;;;;;4983032;28;20049;-86
2023/08/04 05:07:29;;;;;;;0.20;0.10;;;;;;;;;;4989974;28;20479;-87
2023/08/04 05:09:55;;;;;;;0.20;0.10;;;;;;;;;;5003554;28;20049;-85
2023/08/04 05:12:21;;;;;;;0.20;0.10;;;;;;;;;;4979630;28;20507;-86
2023/08/04 05:14:47;;;;;;;0.20;0.00;;;;;;;;;;5005626;28;20042;-87
2023/08/04 05:17:16;;;;;;;0.20;0.10;;;;;;;;;;4983101;28;20129;-85
2023/08/04 05:19:44;;;;;;;0.30;0.20;;;;;;;;;;5006419;28;20045;-86
2023/08/04 05:22:10;;;;;;;0.20;0.00;;;;;;;;;;4984000;28;20088;-85
2023/08/04 05:24:36;;;;;;;0.20;0.10;;;;;;;;;;4976321;28;20798;-88
2023/08/04 05:27:04;;;;;;;0.20;0.00;;;;;;;;;;4980341;28;20041;-86
2023/08/04 05:29:30;;;;;;;0.20;0.03;;;;;;;;;;4988177;28;20039;-85
2023/08/04 05:31:56;;;;;;;0.30;0.22;;;;;;;;;;5013635;28;20040;-86
2023/08/04 05:34:22;;;;;;;0.20;0.00;;;;;;;;;;4985193;28;20104;-85
2023/08/04 05:36:48;;;;;;;0.20;0.10;;;;;;;;;;4988005;28;20042;-88
2023/08/04 05:39:14;;;;;;;0.20;0.00;;;;;;;;;;5003232;28;20124;-85
2023/08/04 05:41:42;;;;;;;0.20;0.10;;;;;;;;;;4988340;28;20037;-86
2023/08/04 05:44:09;;;;;;;0.20;0.10;;;;;;;;;;4988892;28;20038;-89
2023/08/04 05:46:35;;;;;;;0.20;0.10;;;;;;;;;;4987160;28;20046;-85
2023/08/04 05:49:01;;;;;;;0.20;0.00;;;;;;;;;;4984158;28;20046;-85
2023/08/04 05:51:27;;;;;;;0.20;0.10;;;;;;;;;;4985176;28;20041;-84
2023/08/04 05:53:53;;;;;;;0.20;0.10;;;;;;;;;;5002414;28;20137;-86
2023/08/04 05:56:19;;;;;;;0.20;0.00;;;;;;;;;;4987536;28;20540;-85
2023/08/04 05:58:45;;;;;;;0.20;0.10;;;;;;;;;;4984524;28;20042;-86
2023/08/04 06:01:11;;;;;;;0.20;0.10;;;;;;;;;;5004191;28;20082;-86
2023/08/04 06:03:37;;;;;;;0.20;0.10;;;;;;;;;;4986089;28;20038;-85
2023/08/04 06:06:03;;;;;;;0.20;0.05;;;;;;;;;;4978542;28;20040;-88
2023/08/04 06:08:30;;;;;;;0.50;0.20;;;;;;;;;;4983608;28;20054;-84
2023/08/04 06:10:56;;;;;;;0.20;0.00;;;;;;;;;;5003627;28;20044;-88
2023/08/04 06:13:22;;;;;;;0.20;0.00;;;;;;;;;;4986788;28;20092;-85
2023/08/04 06:15:48;;;;;;;0.20;0.10;;;;;;;;;;5000869;28;20997;-85
2023/08/04 06:18:14;;;;;;;0.20;0.10;;;;;;;;;;5004047;28;20065;-86
2023/08/04 06:20:40;;;;;;;0.20;0.00;;;;;;;;;;4987602;28;20411;-85
2023/08/04 06:23:06;;;;;;;0.20;0.10;;;;;;;;;;4983692;28;20050;-85
2023/08/04 06:25:32;;;;;;;0.20;0.10;;;;;;;;;;4980304;28;20050;-89
2023/08/04 06:27:59;;;;;;;0.20;0.10;;;;;;;;;;4989262;28;20039;-85
2023/08/04 06:30:26;;;;;;;0.20;0.00;;;;;;;;;;5007143;28;20037;-85
2023/08/04 06:32:52;;;;;;;0.20;0.10;;;;;;;;;;4981188;28;20121;-85
2023/08/04 06:35:18;;;;;;;0.20;0.20;;;;;;;;;;5004647;28;20048;-84
2023/08/04 06:37:44;;;;;;;0.20;0.10;;;;;;;;;;4985535;28;20049;-86
2023/08/04 06:40:10;;;;;;;0.30;0.20;;;;;;;;;;4980072;28;20061;-84
2023/08/04 06:42:37;;;;;;;0.20;0.03;;;;;;;;;;4979593;28;20050;-88
2023/08/04 06:45:03;;;;;;;0.20;0.00;;;;;;;;;;4980600;28;20038;-86
2023/08/04 06:47:29;;;;;;;0.20;0.00;;;;;;;;;;5004186;28;20030;-85
2023/08/04 06:49:55;;;;;;;0.20;0.10;;;;;;;;;;4989370;28;20044;-86
2023/08/04 06:52:21;;;;;;;0.20;0.00;;;;;;;;;;4983619;28;20112;-86
2023/08/04 06:54:48;;;;;;;0.20;0.10;;;;;;;;;;4982708;28;20133;-85
2023/08/04 06:57:14;;;;;;;0.20;0.00;;;;;;;;;;5000251;28;20042;-91
2023/08/04 06:59:40;;;;;;;0.20;0.10;;;;;;;;;;4979268;28;20409;-87
2023/08/04 07:02:06;;;;;;;0.20;0.10;;;;;;;;;;4986336;28;20038;-86
2023/08/04 07:04:32;;;;;;;0.20;0.00;;;;;;;;;;4999758;28;20089;-88
2023/08/04 07:06:59;;;;;;;0.20;0.08;;;;;;;;;;4983500;28;20034;-87
2023/08/04 07:09:27;;;;;;;0.20;0.10;;;;;;;;;;4987206;28;20561;-85
2023/08/04 07:11:56;;;;;;;0.20;0.10;;;;;;;;;;4983367;28;20108;-86
2023/08/04 07:14:22;;;;;;;0.20;0.10;;;;;;;;;;4984012;28;20197;-86
2023/08/04 07:16:48;;;;;;;0.20;0.00;;;;;;;;;;5003037;28;20050;-86
2023/08/04 07:19:15;;;;;;;0.20;0.10;;;;;;;;;;4985778;28;20613;-86
2023/08/04 07:21:49;;;;;;;0.20;0.08;;;;;;;;;;4981211;28;20668;-86
2023/08/04 07:24:15;;;;;;;0.20;0.10;;;;;;;;;;4979963;28;20125;-83
2023/08/04 07:26:41;;;;;;;0.20;0.10;;;;;;;;;;5005215;28;20372;-83
2023/08/04 07:29:10;;;;;;;0.20;0.10;;;;;;;;;;4981273;28;20037;-84
2023/08/04 07:31:39;;;;;;;0.20;0.05;;;;;;;;;;4985906;28;20046;-85
2023/08/04 07:34:05;;;;;;;0.20;0.10;;;;;;;;;;4989747;28;20045;-85
2023/08/04 07:36:40;;;;;;;0.20;0.00;;;;;;;;;;4984072;28;20073;-89
2023/08/04 07:39:06;;;;;;;0.20;0.05;;;;;;;;;;4988871;28;20195;-85
2023/08/04 07:41:38;;;;;;;0.20;0.10;;;;;;;;;;4987284;28;20037;-85
2023/08/04 07:44:04;;;;;;;0.20;0.10;;;;;;;;;;4990769;28;20046;-88
2023/08/04 07:46:30;;;;;;;0.20;0.10;;;;;;;;;;4989207;28;20499;-84
2023/08/04 07:48:59;;;;;;;0.20;0.10;;;;;;;;;;4990295;28;20092;-85
2023/08/04 07:51:25;;;;;;;0.20;0.10;;;;;;;;;;4990106;28;20053;-84
2023/08/04 07:53:51;;;;;;;0.20;0.08;;;;;;;;;;4992281;28;20490;-85
2023/08/04 07:56:17;;;;;;;0.30;0.10;;;;;;;;;;5010100;28;20073;-84
2023/08/04 07:58:43;;;;;;;0.20;0.10;;;;;;;;;;5007643;28;20041;-85
2023/08/04 08:01:10;;;;;;;0.40;0.40;;;;;;;;;;4988792;28;20292;-85
2023/08/04 08:03:54;;;;;;;0.20;0.10;;;;;;;;;;4986898;28;20049;-85
2023/08/04 08:06:23;;;;;;;0.20;0.03;;;;;;;;;;4989941;28;20394;-85
2023/08/04 08:09:13;;;;;;;;;;;;;;;;;;;;;
2023/08/04 08:11:42;;;;;;;0.20;0.10;;;;;;;;;;5000597;28;20054;-86
2023/08/04 08:14:22;;;;;;;0.20;0.05;;;;;;;;;;4988569;28;20085;-84
2023/08/04 08:16:48;;;;;;;0.20;0.10;;;;;;;;;;4999887;28;20045;-84
2023/08/04 08:19:31;;;;;;;;;;;;;;;;;;;;;
2023/08/04 08:22:00;;;;;;;0.20;0.10;;;;;;;;;;5001715;28;20037;-85
2023/08/04 08:24:32;;;;;;;0.20;0.00;;;;;;;;;;4987049;28;20100;-85
2023/08/04 08:27:00;;;;;;;0.20;0.00;;;;;;;;;;4984068;28;20139;-88
2023/08/04 08:29:27;;;;;;;0.20;0.10;;;;;;;;;;5028165;22;20049;-79
2023/08/04 08:31:59;;;;;;;0.20;0.08;;;;;;;;;;4999308;28;20423;-83
2023/08/04 08:34:33;;;;;;;0.20;0.10;;;;;;;;;;4985010;28;20049;-85
2023/08/04 08:37:08;;;;;;;0.20;0.10;;;;;;;;;;4986482;28;20121;-85
2023/08/04 08:39:34;;;;;;;0.30;0.20;;;;;;;;;;4981185;28;20030;-81
2023/08/04 08:42:00;;;;;;;0.20;0.10;;;;;;;;;;4988724;28;20046;-80
2023/08/04 08:44:26;;;;;;;0.20;0.10;;;;;;;;;;4982270;28;20042;-82
2023/08/04 08:46:53;;;;;;;0.20;0.10;;;;;;;;;;4984420;28;20109;-84
2023/08/04 08:49:28;;;;;;;0.20;0.10;;;;;;;;;;4982195;28;20411;-80
2023/08/04 08:51:56;;;;;;;0.20;0.00;;;;;;;;;;4986778;28;20129;-80
2023/08/04 08:54:22;;;;;;;0.20;0.10;;;;;;;;;;4964685;28;20072;-80
2023/08/04 08:56:51;;;;;;;0.20;0.10;;;;;;;;;;4960908;28;20049;-79
2023/08/04 08:59:18;;;;;;;0.20;0.00;;;;;;;;;;4983261;28;20039;-80
2023/08/04 09:01:44;;;;;;;0.20;0.08;;;;;;;;;;4986296;28;20551;-81
2023/08/04 09:04:13;;;;;;;0.20;0.10;;;;;;;;;;4989346;28;20034;-80
2023/08/04 09:06:39;;;;;;;0.20;0.00;;;;;;;;;;4966337;28;20070;-80
2023/08/04 09:09:05;;;;;;;0.20;0.10;;;;;;;;;;4985819;28;20034;-80
2023/08/04 09:11:32;;;;;;;0.20;0.10;;;;;;;;;;4970097;28;20160;-82
2023/08/04 09:14:02;;;;;;;0.20;0.10;;;;;;;;;;4984498;28;20077;-79
2023/08/04 09:16:39;;;;;;;0.22;0.15;;;;;;;;;;4978212;28;20043;-83
2023/08/04 09:19:05;;;;;;;0.20;0.03;;;;;;;;;;4984469;28;20034;-82
2023/08/04 09:21:32;;;;;;;0.20;0.15;;;;;;;;;;5011202;28;20257;-80
2023/08/04 09:23:58;;;;;;;0.20;0.10;;;;;;;;;;4976443;28;20034;-79
2023/08/04 09:26:24;;;;;;;0.20;0.10;;;;;;;;;;4984583;28;20045;-80
2023/08/04 09:29:06;;;;;;;0.20;0.10;;;;;;;;;;4970532;28;20053;-78
2023/08/04 09:31:37;;;;;;;0.20;0.10;;;;;;;;;;4986436;28;20147;-78
2023/08/04 09:34:06;;;;;;;0.20;0.10;;;;;;;;;;4986663;28;20031;-82
2023/08/04 09:36:37;;;;;;;0.20;0.10;;;;;;;;;;4973161;28;20062;-81
2023/08/04 09:39:04;;;;;;;0.20;0.10;;;;;;;;;;4982006;28;20523;-82
2023/08/04 09:41:36;;;;;;;0.20;0.20;;;;;;;;;;4967852;28;20053;-83
2023/08/04 09:44:06;;;;;;;0.20;0.20;;;;;;;;;;4970671;28;20035;-81
2023/08/04 09:46:32;;;;;;;0.20;0.03;;;;;;;;;;4969767;28;20129;-79
2023/08/04 09:48:59;;;;;;;0.20;0.10;;;;;;;;;;4988178;28;20035;-81
2023/08/04 09:51:25;;;;;;;0.20;0.10;;;;;;;;;;4957666;28;20400;-81
2023/08/04 09:53:54;;;;;;;0.20;0.10;;;;;;;;;;4979164;28;20089;-83
2023/08/04 09:56:20;;;;;;;0.40;0.40;;;;;;;;;;4982023;28;20042;-82
2023/08/04 09:58:48;;;;;;;0.20;0.10;;;;;;;;;;4969287;28;20283;-79
2023/08/04 10:01:15;;;;;;;0.20;0.10;;;;;;;;;;4966734;28;20045;-81
2023/08/04 10:03:42;;;;;;;0.20;0.10;;;;;;;;;;4992629;28;20065;-81
2023/08/04 10:06:09;;;;;;;0.20;0.10;;;;;;;;;;4974144;28;20076;-80
2023/08/04 10:08:40;;;;;;;0.20;0.10;;;;;;;;;;4993933;28;20094;-80
2023/08/04 10:11:07;;;;;;;0.20;0.10;;;;;;;;;;4985808;28;20046;-81
2023/08/04 10:13:53;;;;;;;0.20;0.10;;;;;;;;;;4975220;28;20042;-80
2023/08/04 10:16:23;;;;;;;0.20;0.10;;;;;;;;;;4971966;28;20119;-79
2023/08/04 10:18:55;;;;;;;0.20;0.08;;;;;;;;;;4986738;28;20096;-79
2023/08/04 10:21:35;;;;;;;0.20;0.17;;;;;;;;;;4984314;28;20050;-80
2023/08/04 10:24:06;;;;;;;0.20;0.10;;;;;;;;;;4986665;28;20112;-79
2023/08/04 10:26:33;;;;;;;0.20;0.10;;;;;;;;;;4982611;28;20042;-79
2023/08/04 10:29:01;;;;;;;0.20;0.10;;;;;;;;;;4979425;28;21339;-79
2023/08/04 10:31:42;;;;;;;0.20;0.10;;;;;;;;;;4984534;28;20038;-80
2023/08/04 10:34:19;;;;;;;0.20;0.10;;;;;;;;;;4981658;28;20042;-80
2023/08/04 10:37:04;;;;;;;0.20;0.10;;;;;;;;;;4970835;28;20038;-80
2023/08/04 10:39:39;;;;;;;0.20;0.10;;;;;;;;;;4982749;28;20034;-80
2023/08/04 10:42:14;;;;;;;0.20;0.10;;;;;;;;;;4970774;28;20447;-80
2023/08/04 10:44:48;;;;;;;0.20;0.10;;;;;;;;;;4988234;28;20042;-80
2023/08/04 10:47:15;;;;;;;0.20;0.10;;;;;;;;;;4988985;28;20660;-79
2023/08/04 10:49:41;;;;;;;0.20;0.10;;;;;;;;;;4988166;28;20049;-80
2023/08/04 10:52:07;;;;;;;0.20;0.10;;;;;;;;;;4985153;28;20042;-80
2023/08/04 10:54:33;;;;;;;0.20;0.10;;;;;;;;;;4986382;28;20064;-80
2023/08/04 10:56:59;;;;;;;0.20;0.00;;;;;;;;;;4993807;28;20074;-80
2023/08/04 10:59:25;;;;;;;0.20;0.00;;;;;;;;;;4991259;28;20075;-80
2023/08/04 11:01:51;;;;;;;0.20;0.00;;;;;;;;;;4991268;28;20058;-79
2023/08/04 11:04:18;;;;;;;0.20;0.10;;;;;;;;;;4982103;28;20065;-81
2023/08/04 11:06:47;;;;;;;0.20;0.10;;;;;;;;;;4969600;28;20042;-82
2023/08/04 11:09:13;;;;;;;0.20;0.10;;;;;;;;;;4980151;28;20461;-83
2023/08/04 11:11:40;;;;;;;0.20;0.10;;;;;;;;;;4981758;28;20042;-83
2023/08/04 11:14:09;;;;;;;0.20;0.10;;;;;;;;;;4989638;28;20038;-82
2023/08/04 11:16:51;;;;;;;0.20;0.00;;;;;;;;;;4985556;28;21574;-82
2023/08/04 11:19:23;;;;;;;0.20;0.10;;;;;;;;;;5003238;28;20093;-82
2023/08/04 11:21:49;;;;;;;0.20;0.20;;;;;;;;;;4972665;28;20427;-80
2023/08/04 11:24:15;;;;;;;0.20;0.10;;;;;;;;;;4977271;28;20038;-80
2023/08/04 11:26:41;;;;;;;0.20;0.10;;;;;;;;;;4958953;28;20042;-82
2023/08/04 11:29:07;;;;;;;0.20;0.10;;;;;;;;;;4973420;28;20042;-85
2023/08/04 11:31:33;;;;;;;0.20;0.10;;;;;;;;;;4972492;28;20276;-84
2023/08/04 11:33:59;;;;;;;0.20;0.10;;;;;;;;;;4976525;28;20128;-87
2023/08/04 11:36:25;;;;;;;0.20;0.10;;;;;;;;;;4982415;28;20602;-85
2023/08/04 11:38:51;;;;;;;0.20;0.10;;;;;;;;;;4965735;28;20516;-84
2023/08/04 11:41:17;;;;;;;0.30;0.13;;;;;;;;;;4971479;28;20514;-85
2023/08/04 11:43:44;;;;;;;0.30;0.10;;;;;;;;;;4962206;28;20030;-84
2023/08/04 11:46:10;;;;;;;0.20;0.00;;;;;;;;;;4993513;28;20121;-85
2023/08/04 11:48:38;;;;;;;0.20;0.20;;;;;;;;;;4970583;28;20046;-85
2023/08/04 11:51:06;;;;;;;0.20;0.10;;;;;;;;;;4978287;28;20049;-83
2023/08/04 11:53:32;;;;;;;0.20;0.10;;;;;;;;;;4984575;28;20046;-83
2023/08/04 11:55:59;;;;;;;0.25;0.20;;;;;;;;;;4966218;28;20050;-82
2023/08/04 11:58:29;;;;;;;0.20;0.10;;;;;;;;;;4956133;28;20057;-82
2023/08/04 12:00:55;;;;;;;0.20;0.10;;;;;;;;;;4977026;28;20692;-81
2023/08/04 12:03:22;;;;;;;0.20;0.10;;;;;;;;;;4969451;28;20129;-78
2023/08/04 12:05:51;;;;;;;0.20;0.10;;;;;;;;;;4983575;28;20042;-81
2023/08/04 12:08:25;;;;;;;0.20;0.00;;;;;;;;;;4982950;28;20053;-83
2023/08/04 12:11:21;;;;;;;0.20;0.10;;;;;;;;;;4958441;28;20046;-83
2023/08/04 12:13:54;;;;;;;0.43;0.38;;;;;;;;;;4979106;28;20089;-81
2023/08/04 12:16:30;;;;;;;0.20;0.10;;;;;;;;;;4980930;28;20048;-81
2023/08/04 12:19:12;;;;;;;0.20;0.10;;;;;;;;;;4966380;28;20034;-80
2023/08/04 12:21:40;;;;;;;0.20;0.10;;;;;;;;;;4988133;28;20057;-80
2023/08/04 12:24:09;;;;;;;0.20;0.00;;;;;;;;;;4967969;28;20045;-80
2023/08/04 12:26:35;;;;;;;0.20;0.10;;;;;;;;;;4980142;28;20030;-80
2023/08/04 12:29:04;;;;;;;0.20;0.10;;;;;;;;;;4989844;28;20177;-79
2023/08/04 12:31:40;;;;;;;0.20;0.10;;;;;;;;;;4970738;28;20545;-81
2023/08/04 12:34:07;;;;;;;0.20;0.10;;;;;;;;;;4991105;28;20384;-83
2023/08/04 12:36:34;;;;;;;0.25;0.20;;;;;;;;;;4975654;28;20122;-79
2023/08/04 12:39:02;;;;;;;0.20;0.10;;;;;;;;;;4969899;28;20439;-80
2023/08/04 12:41:29;;;;;;;0.20;0.10;;;;;;;;;;4980813;28;20034;-82
2023/08/04 12:43:58;;;;;;;0.20;0.10;;;;;;;;;;4998927;28;20043;-81
2023/08/04 12:46:26;;;;;;;0.20;0.10;;;;;;;;;;4996754;28;20038;-81
2023/08/04 12:48:53;;;;;;;0.20;0.10;;;;;;;;;;4967616;28;20042;-81
2023/08/04 12:51:20;;;;;;;0.20;0.10;;;;;;;;;;4981525;28;20048;-81
2023/08/04 12:53:46;;;;;;;0.20;0.10;;;;;;;;;;4982645;28;20515;-81
2023/08/04 12:56:13;;;;;;;0.20;0.10;;;;;;;;;;4962631;28;20046;-80
2023/08/04 12:58:39;;;;;;;0.20;0.10;;;;;;;;;;4966920;28;20042;-81
2023/08/04 13:01:05;;;;;;;0.20;0.10;;;;;;;;;;4980757;28;20062;-81
2023/08/04 13:03:31;;;;;;;0.20;0.10;;;;;;;;;;4983993;28;20043;-81
2023/08/04 13:05:57;;;;;;;0.20;0.10;;;;;;;;;;4981381;28;20042;-81
2023/08/04 13:08:23;;;;;;;0.20;0.10;;;;;;;;;;4975408;28;20054;-82
2023/08/04 13:10:49;;;;;;;0.20;0.10;;;;;;;;;;5001975;28;20101;-81
2023/08/04 13:13:15;;;;;;;0.20;0.00;;;;;;;;;;4979091;28;20045;-81
2023/08/04 13:15:47;;;;;;;0.20;0.10;;;;;;;;;;4968497;28;20050;-79
2023/08/04 13:18:13;;;;;;;0.20;0.10;;;;;;;;;;4972729;28;20053;-79
2023/08/04 13:20:42;;;;;;;0.20;0.05;;;;;;;;;;4973900;28;20047;-81
2023/08/04 13:23:11;;;;;;;0.20;0.10;;;;;;;;;;4988813;28;20499;-80
2023/08/04 13:25:41;;;;;;;0.20;0.10;;;;;;;;;;5000834;28;20438;-86
2023/08/04 13:28:10;;;;;;;0.20;0.10;;;;;;;;;;4992572;28;20057;-79
2023/08/04 13:30:36;;;;;;;0.20;0.10;;;;;;;;;;4972530;28;20101;-79
2023/08/04 13:33:02;;;;;;;0.40;0.13;;;;;;;;;;4986986;28;20057;-78
2023/08/04 13:35:29;;;;;;;0.20;0.10;;;;;;;;;;4974254;28;20652;-80
2023/08/04 13:37:57;;;;;;;0.30;0.20;;;;;;;;;;4969910;28;20129;-79
2023/08/04 13:40:23;;;;;;;0.20;0.10;;;;;;;;;;4983443;28;20042;-80
2023/08/04 13:42:52;;;;;;;0.43;0.40;;;;;;;;;;4984112;28;20748;-80
2023/08/04 13:45:18;;;;;;;0.20;0.13;;;;;;;;;;4987612;28;20102;-80
2023/08/04 13:47:46;;;;;;;0.20;0.05;;;;;;;;;;4992983;28;20042;-81
2023/08/04 13:50:15;;;;;;;0.20;0.10;;;;;;;;;;4987681;28;20046;-80
2023/08/04 13:52:41;;;;;;;0.20;0.10;;;;;;;;;;4970544;28;22309;-80
2023/08/04 13:55:07;;;;;;;0.20;0.10;;;;;;;;;;4989579;28;20042;-80
2023/08/04 13:57:38;;;;;;;0.20;0.10;;;;;;;;;;4987876;28;20064;-78
2023/08/04 14:00:04;;;;;;;0.20;0.10;;;;;;;;;;4987938;28;20045;-81
2023/08/04 14:02:32;;;;;;;0.20;0.00;;;;;;;;;;4991197;28;20693;-80
2023/08/04 14:05:01;;;;;;;0.20;0.10;;;;;;;;;;4976241;28;20945;-79
2023/08/04 14:07:27;;;;;;;0.20;0.10;;;;;;;;;;4994897;28;20042;-80
2023/08/04 14:09:53;;;;;;;0.20;0.10;;;;;;;;;;4990084;28;20038;-80
2023/08/04 14:12:19;;;;;;;0.20;0.10;;;;;;;;;;4991346;28;20388;-79
2023/08/04 14:14:55;;;;;;;0.20;0.10;;;;;;;;;;4989658;28;20124;-79
2023/08/04 14:17:20;;;;;;;;;;;;;;;;;;4991032;28;20188;-78
2023/08/04 14:19:50;;;;;;;0.20;0.00;;;;;;;;;;4991860;28;19960;-81
2023/08/04 14:22:16;;;;;;;0.20;0.10;;;;;;;;;;4991777;28;20039;-80
2023/08/04 14:24:51;;;;;;;0.20;0.10;;;;;;;;;;4977839;28;20137;-83
2023/08/04 14:27:34;;;;;;;0.20;0.10;;;;;;;;;;4987496;28;20221;-81
2023/08/04 14:33:07;;;;;;;0.20;0.10;;;;;;;;;;5020542;28;20046;-85
2023/08/04 14:38:48;;;;;;;0.20;0.10;;;;;;;;;;4977866;28;20055;-84
2023/08/04 14:48:41;;;;;;;0.20;0.10;;;;;;;;;;4931663;28;20164;-84
2023/08/04 14:51:24;;;;;;;0.20;0.10;;;;;;;;;;4985867;28;20045;-83
2023/08/04 14:54:26;;;;;;;0.20;0.05;;;;;;;;;;5013529;28;20124;-84
2023/08/04 14:57:07;;;;;;;0.20;0.10;;;;;;;;;;4978895;28;20045;-84
2023/08/04 14:59:53;;;;;;;0.20;0.10;;;;;;;;;;4980027;28;20034;-85
2023/08/04 15:02:21;;;;;;;0.20;0.00;;;;;;;;;;4997978;28;20077;-86
2023/08/04 15:04:58;;;;;;;0.20;0.10;;;;;;;;;;4982442;28;20059;-86